createdAt,value
2019-04-28T00:00:44.961Z,71.10
2019-04-28T00:03:13.362Z,72.70
2019-04-28T00:05:41.763Z,73.30
2019-04-28T00:08:10.904Z,71.80
2019-04-28T00:10:41.714Z,69.30
2019-04-28T00:13:10.971Z,69.60
2019-04-28T00:15:41.529Z,69.30
2019-04-28T00:18:11.816Z,69.40
2019-04-28T00:20:41.814Z,70.00
2019-04-28T00:23:14.565Z,70.90
2019-04-28T00:25:44.625Z,69.00
2019-04-28T00:28:13.028Z,70.60
2019-04-28T00:30:41.761Z,71.00
2019-04-28T00:33:11.716Z,69.30
2019-04-28T00:35:41.835Z,71.10
2019-04-28T00:38:13.081Z,69.40
2019-04-28T00:40:41.510Z,69.40
2019-04-28T00:43:10.861Z,70.10
2019-04-28T00:45:41.245Z,70.40
2019-04-28T00:48:10.956Z,70.00
2019-04-28T00:50:41.381Z,70.30
2019-04-28T00:53:11.599Z,72.00
2019-04-28T00:55:41.590Z,73.00
2019-04-28T00:58:10.927Z,73.20
2019-04-28T01:00:44.297Z,74.80
2019-04-28T01:03:12.718Z,73.80
2019-04-28T01:05:41.257Z,76.30
2019-04-28T01:08:10.960Z,76.20
2019-04-28T01:10:40.984Z,76.90
2019-04-28T01:13:09.565Z,76.30
2019-04-28T01:15:49.650Z,76.00
2019-04-28T01:18:29.973Z,76.00
2019-04-28T01:20:59.646Z,75.80
2019-04-28T01:23:30.204Z,75.80
2019-04-28T01:25:59.989Z,76.90
2019-04-28T01:28:29.768Z,78.10
2019-04-28T01:31:09.592Z,77.70
2019-04-28T01:33:57.807Z,77.20
2019-04-28T01:36:26.205Z,76.60
2019-04-28T01:38:54.615Z,77.50
2019-04-28T01:41:23.021Z,77.60
2019-04-28T01:44:10.822Z,78.30
2019-04-28T01:46:39.867Z,79.10
2019-04-28T01:49:09.620Z,79.10
2019-04-28T01:51:38.236Z,78.30
2019-04-28T01:54:06.670Z,76.50
2019-04-28T01:56:35.079Z,77.40
2019-04-28T01:59:03.831Z,76.90
2019-04-28T02:01:32.230Z,74.90
2019-04-28T02:04:00.644Z,74.50
2019-04-28T02:06:29.979Z,75.30
2019-04-28T02:09:00.703Z,75.10
2019-04-28T02:11:29.577Z,74.50
2019-04-28T02:13:59.729Z,74.80
2019-04-28T02:16:29.593Z,74.80
2019-04-28T02:18:59.756Z,74.60
2019-04-28T02:21:35.658Z,73.40
2019-04-28T02:24:22.717Z,73.10
2019-04-28T02:26:52.685Z,74.30
2019-04-28T02:29:21.289Z,74.30
2019-04-28T02:31:51.067Z,73.40
2019-04-28T02:34:21.199Z,73.00
2019-04-28T02:36:50.623Z,72.20
2019-04-28T02:39:20.748Z,72.00
2019-04-28T02:41:51.252Z,72.80
2019-04-28T02:44:23.024Z,72.40
2019-04-28T02:46:50.712Z,70.90
2019-04-28T02:49:21.334Z,71.60
2019-04-28T02:52:10.750Z,72.80
2019-04-28T02:54:40.384Z,72.00
2019-04-28T02:57:10.736Z,73.70
2019-04-28T02:59:40.991Z,72.90
2019-04-28T03:02:10.576Z,73.40
2019-04-28T03:04:40.837Z,73.20
2019-04-28T03:07:11.582Z,72.90
2019-04-28T03:09:40.351Z,73.80
2019-04-28T03:12:11.287Z,72.60
2019-04-28T03:14:43.287Z,71.60
2019-04-28T03:17:11.073Z,70.00
2019-04-28T03:19:41.647Z,70.50
2019-04-28T03:22:11.631Z,69.60
2019-04-28T03:24:41.299Z,70.10
2019-04-28T03:27:11.545Z,70.00
2019-04-28T03:29:44.678Z,68.40
2019-04-28T03:32:30.281Z,68.80
2019-04-28T03:34:46.304Z,68.50
2019-04-28T03:37:14.701Z,65.20
2019-04-28T03:39:43.113Z,65.90
2019-04-28T03:42:11.773Z,66.20
2019-04-28T03:44:41.463Z,67.10
2019-04-28T03:47:10.740Z,66.50
2019-04-28T03:49:42.574Z,66.10
2019-04-28T03:52:10.763Z,64.60
2019-04-28T03:54:40.969Z,65.40
2019-04-28T03:57:11.402Z,64.80
2019-04-28T03:59:41.327Z,65.10
2019-04-28T04:02:11.256Z,64.40
2019-04-28T04:04:41.452Z,64.50
2019-04-28T04:07:11.122Z,63.80
2019-04-28T04:09:41.529Z,63.10
2019-04-28T04:12:14.333Z,63.00
2019-04-28T04:14:47.113Z,63.20
2019-04-28T04:17:23.123Z,63.30
2019-04-28T04:19:51.535Z,63.00
2019-04-28T04:22:21.320Z,64.10
2019-04-28T04:24:52.468Z,63.70
2019-04-28T04:27:20.916Z,64.60
2019-04-28T04:29:50.969Z,65.90
2019-04-28T04:32:26.275Z,67.00
2019-04-28T04:34:50.562Z,66.20
2019-04-28T04:37:20.532Z,67.10
2019-04-28T04:39:51.294Z,67.50
2019-04-28T04:42:20.427Z,66.70
2019-04-28T04:44:50.173Z,66.60
2019-04-28T04:47:20.977Z,66.60
2019-04-28T04:49:50.503Z,66.60
2019-04-28T04:52:20.303Z,66.10
2019-04-28T04:54:51.059Z,66.00
2019-04-28T04:57:20.742Z,65.00
2019-04-28T04:59:50.045Z,65.70
2019-04-28T05:02:29.660Z,65.50
2019-04-28T05:04:54.472Z,65.60
2019-04-28T05:07:22.881Z,65.70
2019-04-28T05:09:51.279Z,66.90
2019-04-28T05:12:19.702Z,65.40
2019-04-28T05:14:49.422Z,64.00
2019-04-28T05:17:17.928Z,65.00
2019-04-28T05:19:46.325Z,65.70
2019-04-28T05:22:15.708Z,65.30
2019-04-28T05:24:54.357Z,65.20
2019-04-28T05:27:25.381Z,66.00
2019-04-28T05:29:51.818Z,66.80
2019-04-28T05:32:20.569Z,65.10
2019-04-28T05:34:52.646Z,65.30
2019-04-28T05:37:19.359Z,64.20
2019-04-28T05:39:49.665Z,64.30
2019-04-28T05:42:19.987Z,64.60
2019-04-28T05:44:49.653Z,63.70
2019-04-28T05:47:20.206Z,62.60
2019-04-28T05:49:51.442Z,62.10
2019-04-28T05:52:40.196Z,61.40
2019-04-28T05:55:10.210Z,61.70
2019-04-28T05:57:53.093Z,61.90
2019-04-28T06:00:41.701Z,61.50
2019-04-28T06:03:14.450Z,61.90
2019-04-28T06:05:42.843Z,60.50
2019-04-28T06:08:15.657Z,59.30
2019-04-28T06:10:44.055Z,57.90
2019-04-28T06:13:12.473Z,55.60
2019-04-28T06:15:41.114Z,55.00
2019-04-28T06:18:10.494Z,55.50
2019-04-28T06:20:40.676Z,55.80
2019-04-28T06:23:09.339Z,54.80
2019-04-28T06:25:37.734Z,54.10
2019-04-28T06:28:06.167Z,54.70
2019-04-28T06:30:34.557Z,54.50
2019-04-28T06:33:08.004Z,55.00
2019-04-28T06:35:33.660Z,53.20
2019-04-28T06:38:02.162Z,52.60
2019-04-28T06:40:30.569Z,49.10
2019-04-28T06:42:59.052Z,49.00
2019-04-28T06:45:27.474Z,47.90
2019-04-28T06:47:55.982Z,48.30
2019-04-28T06:50:24.405Z,47.70
2019-04-28T06:52:52.812Z,48.20
2019-04-28T06:55:21.304Z,47.50
2019-04-28T06:57:49.771Z,46.00
2019-04-28T07:00:18.350Z,45.20
2019-04-28T07:02:46.745Z,43.40
2019-04-28T07:05:15.174Z,43.30
2019-04-28T07:07:43.585Z,41.70
2019-04-28T07:10:12.184Z,40.60
2019-04-28T07:12:40.585Z,39.90
2019-04-28T07:15:09.076Z,38.90
2019-04-28T07:17:37.507Z,37.70
2019-04-28T07:20:24.829Z,37.30
2019-04-28T07:22:53.248Z,37.40
2019-04-28T07:25:21.674Z,36.90
2019-04-28T07:27:50.092Z,39.20
2019-04-28T07:30:18.567Z,39.20
2019-04-28T07:32:47.185Z,37.30
2019-04-28T07:35:15.608Z,37.20
2019-04-28T07:37:44.019Z,37.80
2019-04-28T07:40:12.577Z,37.80
2019-04-28T07:42:41.024Z,37.00
2019-04-28T07:45:09.749Z,38.00
2019-04-28T07:47:38.145Z,38.40
2019-04-28T07:50:07.205Z,36.70
2019-04-28T07:52:43.545Z,34.60
2019-04-28T07:55:12.127Z,35.60
2019-04-28T07:57:40.559Z,34.70
2019-04-28T08:00:11.124Z,34.70
2019-04-28T08:02:39.530Z,32.10
2019-04-28T08:05:08.101Z,31.80
2019-04-28T08:07:36.509Z,31.30
2019-04-28T08:10:06.304Z,29.70
2019-04-28T08:12:34.738Z,29.00
2019-04-28T08:15:03.578Z,29.40
2019-04-28T08:17:31.978Z,29.50
2019-04-28T08:20:00.850Z,29.90
2019-04-28T08:22:29.342Z,30.50
2019-04-28T08:24:57.962Z,29.80
2019-04-28T08:27:26.380Z,29.30
2019-04-28T08:29:58.600Z,29.20
2019-04-28T08:32:44.982Z,29.40
2019-04-28T08:35:13.612Z,29.50
2019-04-28T08:37:42.024Z,30.80
2019-04-28T08:40:11.009Z,31.80
2019-04-28T08:42:39.419Z,31.80
2019-04-28T08:45:09.296Z,30.80
2019-04-28T08:47:37.740Z,30.70
2019-04-28T08:50:07.290Z,29.00
2019-04-28T08:52:35.696Z,29.70
2019-04-28T08:55:06.257Z,29.40
2019-04-28T08:57:34.782Z,29.60
2019-04-28T09:00:05.516Z,29.70
2019-04-28T09:02:33.992Z,28.60
2019-04-28T09:05:02.469Z,28.30
2019-04-28T09:07:30.885Z,29.80
2019-04-28T09:09:59.389Z,29.50
2019-04-28T09:12:28.151Z,29.00
2019-04-28T09:14:56.562Z,28.20
2019-04-28T09:17:24.990Z,28.60
2019-04-28T09:19:53.421Z,29.00
2019-04-28T09:22:21.846Z,28.20
2019-04-28T09:24:50.256Z,28.50
2019-04-28T09:27:18.956Z,29.70
2019-04-28T09:29:47.402Z,29.40
2019-04-28T09:32:15.869Z,29.90
2019-04-28T09:34:44.452Z,33.80
2019-04-28T09:37:12.945Z,36.40
2019-04-28T09:39:43.002Z,37.20
2019-04-28T09:42:31.391Z,39.90
2019-04-28T09:45:17.224Z,42.50
2019-04-28T09:47:45.926Z,43.70
2019-04-28T09:50:14.419Z,45.40
2019-04-28T09:52:43.212Z,46.40
2019-04-28T09:55:11.636Z,46.10
2019-04-28T09:57:40.117Z,47.20
2019-04-28T10:00:10.545Z,46.80
2019-04-28T10:02:39.022Z,45.40
2019-04-28T10:05:08.664Z,46.90
2019-04-28T10:07:37.093Z,50.00
2019-04-28T10:10:07.965Z,49.90
2019-04-28T10:12:36.393Z,48.50
2019-04-28T10:15:08.889Z,48.50
2019-04-28T10:17:37.778Z,46.80
2019-04-28T10:20:08.207Z,44.80
2019-04-28T10:22:36.635Z,42.10
2019-04-28T10:25:07.043Z,38.90
2019-04-28T10:27:35.484Z,38.90
2019-04-28T10:30:06.789Z,38.70
2019-04-28T10:32:35.610Z,36.90
2019-04-28T10:35:05.714Z,35.50
2019-04-28T10:37:34.125Z,34.60
2019-04-28T10:40:20.947Z,34.60
2019-04-28T10:42:49.372Z,32.70
2019-04-28T10:45:19.436Z,31.60
2019-04-28T10:47:47.996Z,30.40
2019-04-28T10:50:16.536Z,29.50
2019-04-28T10:52:44.953Z,30.00
2019-04-28T10:55:13.433Z,28.60
2019-04-28T10:57:41.859Z,29.30
2019-04-28T11:00:11.257Z,28.30
2019-04-28T11:02:41.314Z,27.90
2019-04-28T11:05:11.707Z,27.80
2019-04-28T11:07:40.183Z,26.50
2019-04-28T11:10:10.697Z,25.70
2019-04-28T11:12:39.129Z,26.00
2019-04-28T11:15:10.437Z,26.30
2019-04-28T11:17:38.863Z,26.60
2019-04-28T11:20:08.285Z,27.10
2019-04-28T11:22:36.708Z,26.60
2019-04-28T11:25:07.438Z,26.10
2019-04-28T11:27:35.858Z,27.80
2019-04-28T11:30:07.334Z,25.50
2019-04-28T11:32:35.754Z,25.80
2019-04-28T11:35:23.094Z,25.90
2019-04-28T11:37:51.514Z,25.90
2019-04-28T11:40:20.000Z,24.10
2019-04-28T11:42:48.417Z,23.70
2019-04-28T11:45:17.234Z,23.80
2019-04-28T11:47:45.721Z,23.30
2019-04-28T11:50:14.761Z,23.10
2019-04-28T11:52:43.196Z,23.10
2019-04-28T11:55:11.852Z,23.90
2019-04-28T11:57:40.264Z,25.90
2019-04-28T12:00:14.354Z,26.10
2019-04-28T12:02:42.769Z,26.80
2019-04-28T12:05:11.252Z,26.50
2019-04-28T12:07:39.673Z,26.30
2019-04-28T12:10:12.496Z,26.60
2019-04-28T12:12:42.561Z,26.70
2019-04-28T12:15:12.677Z,27.80
2019-04-28T12:17:48.265Z,27.10
2019-04-28T12:20:21.106Z,27.40
2019-04-28T12:22:49.522Z,27.20
2019-04-28T12:25:17.942Z,26.50
2019-04-28T12:27:46.443Z,26.80
2019-04-28T12:30:14.990Z,26.60
2019-04-28T12:32:43.411Z,26.60
2019-04-28T12:35:11.814Z,26.20
2019-04-28T12:37:40.225Z,25.90
2019-04-28T12:40:08.969Z,26.10
2019-04-28T12:42:37.389Z,25.70
2019-04-28T12:45:07.478Z,25.70
2019-04-28T12:47:35.950Z,25.90
2019-04-28T12:50:10.513Z,25.20
2019-04-28T12:52:38.957Z,24.90
2019-04-28T12:55:07.621Z,26.00
2019-04-28T12:57:36.021Z,26.00
2019-04-28T13:00:19.958Z,25.60
2019-04-28T13:03:06.238Z,25.40
2019-04-28T13:05:36.285Z,26.20
2019-04-28T13:08:04.763Z,25.80
2019-04-28T13:10:33.201Z,25.60
2019-04-28T13:13:01.619Z,25.10
2019-04-28T13:15:30.444Z,25.00
2019-04-28T13:17:58.912Z,24.40
2019-04-28T13:20:27.370Z,24.50
2019-04-28T13:22:56.255Z,24.90
2019-04-28T13:25:24.723Z,23.90
2019-04-28T13:27:53.121Z,24.50
2019-04-28T13:30:21.706Z,24.70
2019-04-28T13:32:50.131Z,24.50
2019-04-28T13:35:18.549Z,24.50
2019-04-28T13:37:46.962Z,24.70
2019-04-28T13:40:23.562Z,24.30
2019-04-28T13:42:51.994Z,24.40
2019-04-28T13:45:22.112Z,24.50
2019-04-28T13:47:50.542Z,24.80
2019-04-28T13:50:22.617Z,24.90
2019-04-28T13:52:51.023Z,24.90
2019-04-28T13:55:30.312Z,25.40
2019-04-28T13:58:00.375Z,25.40
2019-04-28T14:01:06.075Z,25.00
2019-04-28T14:03:39.213Z,24.80
2019-04-28T14:06:09.357Z,24.50
2019-04-28T14:08:37.873Z,24.40
2019-04-28T14:11:06.504Z,24.70
2019-04-28T14:13:35.265Z,24.70
2019-04-28T14:16:04.622Z,24.90
2019-04-28T14:18:33.892Z,25.60
2019-04-28T14:21:02.574Z,24.90
2019-04-28T14:23:31.049Z,24.30
2019-04-28T14:25:59.485Z,24.40
2019-04-28T14:28:27.949Z,24.90
2019-04-28T14:30:56.370Z,25.50
2019-04-28T14:33:24.773Z,24.90
2019-04-28T14:35:53.347Z,24.60
2019-04-28T14:38:21.788Z,26.00
2019-04-28T14:40:50.231Z,25.80
2019-04-28T14:43:18.704Z,25.40
2019-04-28T14:45:47.217Z,23.80
2019-04-28T14:48:15.700Z,23.50
2019-04-28T14:50:44.288Z,23.50
2019-04-28T14:53:12.702Z,23.20
2019-04-28T14:55:41.140Z,23.50
2019-04-28T14:58:09.620Z,23.90
2019-04-28T15:00:52.078Z,24.50
2019-04-28T15:03:21.970Z,25.20
2019-04-28T15:05:54.905Z,25.50
2019-04-28T15:08:27.893Z,26.00
2019-04-28T15:10:57.954Z,26.50
2019-04-28T15:13:26.850Z,25.70
2019-04-28T15:15:55.274Z,25.80
2019-04-28T15:18:23.688Z,25.70
2019-04-28T15:20:52.380Z,27.60
2019-04-28T15:23:20.786Z,28.70
2019-04-28T15:25:49.230Z,29.70
2019-04-28T15:28:17.631Z,30.60
2019-04-28T15:30:46.064Z,30.70
2019-04-28T15:33:14.558Z,30.50
2019-04-28T15:35:43.033Z,32.80
2019-04-28T15:38:11.450Z,35.20
2019-04-28T15:40:40.129Z,35.80
2019-04-28T15:43:08.534Z,35.90
2019-04-28T15:45:36.965Z,38.80
2019-04-28T15:48:05.530Z,39.50
2019-04-28T15:50:34.253Z,39.50
2019-04-28T15:53:02.680Z,44.80
2019-04-28T15:55:38.314Z,41.80
2019-04-28T15:58:24.639Z,41.10
2019-04-28T16:00:53.147Z,46.50
2019-04-28T16:03:21.610Z,51.00
2019-04-28T16:05:50.430Z,49.80
2019-04-28T16:08:18.906Z,48.00
2019-04-28T16:10:47.330Z,51.20
2019-04-28T16:13:15.741Z,53.90
2019-04-28T16:15:44.147Z,56.90
2019-04-28T16:18:12.561Z,58.20
2019-04-28T16:20:40.980Z,55.80
2019-04-28T16:23:09.387Z,56.60
2019-04-28T16:25:37.965Z,55.30
2019-04-28T16:28:06.606Z,55.60
2019-04-28T16:30:35.257Z,51.70
2019-04-28T16:33:03.762Z,51.70
2019-04-28T16:35:32.157Z,51.80
2019-04-28T16:38:00.575Z,52.20
2019-04-28T16:40:29.295Z,53.20
2019-04-28T16:42:57.986Z,54.00
2019-04-28T16:45:26.481Z,54.30
2019-04-28T16:47:54.913Z,53.70
2019-04-28T16:50:23.317Z,53.60
2019-04-28T16:52:51.786Z,51.80
2019-04-28T16:55:21.846Z,52.10
2019-04-28T16:57:52.673Z,53.00
2019-04-28T17:00:28.534Z,48.90
2019-04-28T17:02:57.702Z,46.50
2019-04-28T17:05:26.230Z,42.40
2019-04-28T17:07:54.750Z,47.20
2019-04-28T17:10:23.163Z,49.00
2019-04-28T17:12:51.566Z,47.50
2019-04-28T17:15:19.986Z,48.30
2019-04-28T17:17:48.412Z,49.60
2019-04-28T17:20:17.391Z,49.40
2019-04-28T17:22:48.048Z,48.90
2019-04-28T17:25:16.504Z,47.80
2019-04-28T17:27:44.965Z,47.80
2019-04-28T17:30:14.752Z,48.20
2019-04-28T17:32:43.869Z,47.90
2019-04-28T17:35:12.516Z,49.30
2019-04-28T17:37:41.281Z,49.50
2019-04-28T17:40:11.290Z,52.40
2019-04-28T17:42:39.753Z,53.00
2019-04-28T17:45:08.927Z,51.70
2019-04-28T17:47:37.384Z,52.90
2019-04-28T17:50:09.244Z,53.00
2019-04-28T17:52:38.139Z,55.10
2019-04-28T17:55:08.982Z,54.70
2019-04-28T17:57:48.674Z,55.10
2019-04-28T18:00:34.261Z,56.20
2019-04-28T18:03:10.067Z,56.60
2019-04-28T18:08:32.418Z,55.10
2019-04-28T18:11:02.285Z,54.10
2019-04-28T18:13:32.466Z,53.30
2019-04-28T18:16:18.704Z,54.10
2019-04-28T18:18:50.545Z,53.70
2019-04-28T18:21:21.938Z,54.30
2019-04-28T18:23:50.955Z,55.40
2019-04-28T18:26:19.786Z,56.90
2019-04-28T18:28:49.935Z,56.00
2019-04-28T18:31:36.858Z,55.10
2019-04-28T18:34:18.927Z,56.60
2019-04-28T18:36:52.110Z,57.70
2019-04-28T18:39:23.691Z,56.90
2019-04-28T18:42:08.865Z,57.10
2019-04-28T18:44:37.260Z,57.20
2019-04-28T18:47:05.913Z,56.80
2019-04-28T18:49:34.392Z,58.50
2019-04-28T18:52:02.921Z,59.30
2019-04-28T18:54:31.768Z,59.80
2019-04-28T18:57:00.262Z,60.60
2019-04-28T18:59:28.894Z,60.10
2019-04-28T19:02:08.099Z,61.10
2019-04-28T19:04:36.674Z,61.20
2019-04-28T19:07:07.323Z,62.50
2019-04-28T19:09:37.639Z,65.00
2019-04-28T19:12:17.209Z,66.10
2019-04-28T19:17:48.133Z,70.60
2019-04-28T19:20:16.599Z,72.50
2019-04-28T19:22:46.705Z,73.60
2019-04-28T19:25:15.125Z,73.50
2019-04-28T19:27:44.287Z,73.60
2019-04-28T19:30:13.117Z,74.00
2019-04-28T19:32:41.836Z,73.60
2019-04-28T19:35:10.590Z,71.90
2019-04-28T19:37:39.015Z,72.50
2019-04-28T19:40:08.301Z,66.40
2019-04-28T19:42:36.702Z,62.20
2019-04-28T19:45:12.048Z,60.40
2019-04-28T19:47:40.781Z,59.70
2019-04-28T19:50:09.478Z,60.00
2019-04-28T19:52:40.931Z,60.10
2019-04-28T19:55:24.665Z,62.40
2019-04-28T19:57:57.444Z,62.70
2019-04-28T20:00:42.971Z,60.60
2019-04-28T20:03:11.369Z,61.00
2019-04-28T20:05:39.796Z,62.10
2019-04-28T20:08:08.223Z,61.40
2019-04-28T20:10:36.640Z,62.40
2019-04-28T20:13:05.066Z,62.20
2019-04-28T20:15:33.651Z,61.10
2019-04-28T20:18:02.142Z,61.20
2019-04-28T20:20:30.561Z,60.50
2019-04-28T20:22:58.968Z,60.50
2019-04-28T20:25:27.391Z,60.30
2019-04-28T20:27:55.809Z,60.50
2019-04-28T20:30:24.518Z,60.50
2019-04-28T20:33:06.211Z,60.90
2019-04-28T20:35:27.682Z,61.20
2019-04-28T20:38:13.705Z,61.20
2019-04-28T20:41:02.157Z,60.40
2019-04-28T20:43:31.302Z,62.10
2019-04-28T20:45:59.713Z,62.20
2019-04-28T20:48:29.819Z,63.00
2019-04-28T20:50:58.275Z,62.30
2019-04-28T20:53:26.761Z,61.80
2019-04-28T20:55:56.782Z,62.30
2019-04-28T20:58:29.909Z,62.60
2019-04-28T21:00:58.449Z,62.40
2019-04-28T21:03:26.945Z,64.00
2019-04-28T21:05:55.515Z,64.20
2019-04-28T21:08:24.096Z,65.90
2019-04-28T21:10:54.290Z,66.70
2019-04-28T21:13:24.749Z,68.60
2019-04-28T21:15:54.710Z,69.20
2019-04-28T21:18:25.110Z,70.10
2019-04-28T21:20:56.232Z,70.70
2019-04-28T21:23:27.631Z,70.70
2019-04-28T21:25:56.113Z,71.40
2019-04-28T21:28:24.638Z,71.40
2019-04-28T21:30:54.697Z,70.70
2019-04-28T21:33:23.163Z,70.40
2019-04-28T21:35:58.993Z,70.50
2019-04-28T21:38:29.584Z,70.30
2019-04-28T21:40:57.985Z,70.90
2019-04-28T21:43:30.851Z,70.80
2019-04-28T21:46:13.213Z,70.80
2019-04-28T21:48:46.457Z,70.90
2019-04-28T21:51:15.031Z,70.70
2019-04-28T21:53:48.790Z,70.40
2019-04-28T21:56:23.505Z,69.90
2019-04-28T21:58:51.899Z,70.50
2019-04-28T22:01:22.735Z,70.80
2019-04-28T22:03:53.978Z,71.40
2019-04-28T22:06:26.887Z,71.80
2019-04-28T22:08:56.458Z,70.70
2019-04-28T22:11:29.449Z,70.70
2019-04-28T22:13:57.882Z,70.30
2019-04-28T22:16:27.690Z,69.70
2019-04-28T22:18:56.164Z,70.40
2019-04-28T22:21:26.211Z,69.50
2019-04-28T22:23:59.201Z,69.20
2019-04-28T22:26:43.837Z,68.80
2019-04-28T22:29:13.289Z,67.60
2019-04-28T22:31:45.450Z,67.20
2019-04-28T22:34:14.611Z,64.60
2019-04-28T22:36:46.425Z,63.30
2019-04-28T22:39:15.650Z,63.60
2019-04-28T22:41:44.214Z,62.40
2019-04-28T22:44:15.599Z,62.70
2019-04-28T22:46:43.998Z,60.40
2019-04-28T22:49:13.954Z,59.50
2019-04-28T22:51:42.386Z,57.10
2019-04-28T22:54:21.690Z,56.60
2019-04-28T22:56:51.723Z,57.00
2019-04-28T22:59:33.581Z,57.50
2019-04-28T23:02:09.962Z,57.00
2019-04-28T23:04:46.124Z,58.20
2019-04-28T23:07:14.911Z,57.70
2019-04-28T23:09:43.315Z,57.60
2019-04-28T23:12:11.873Z,57.70
2019-04-28T23:14:40.273Z,57.60
2019-04-28T23:17:10.333Z,57.10
2019-04-28T23:19:43.587Z,57.30
2019-04-28T23:22:28.638Z,56.90
2019-04-28T23:24:57.062Z,56.10
2019-04-28T23:27:25.466Z,56.70
2019-04-28T23:30:14.763Z,55.90
2019-04-28T23:32:43.285Z,56.10
2019-04-28T23:35:11.807Z,56.40
2019-04-28T23:37:40.228Z,57.00
2019-04-28T23:40:08.727Z,56.90
2019-04-28T23:42:41.821Z,55.60
2019-04-28T23:45:12.214Z,55.60
2019-04-28T23:47:40.871Z,55.80
2019-04-28T23:50:11.363Z,56.00
2019-04-28T23:52:41.402Z,56.10
2019-04-28T23:55:10.525Z,55.30
2019-04-28T23:57:38.921Z,54.60
